createdAt,value
2018-09-26T00:00:49.872Z,29.3
2018-09-26T00:01:51.405Z,30.8
2018-09-26T00:02:52.954Z,29.8
2018-09-26T00:03:54.508Z,29.8
2018-09-26T00:04:56.064Z,29.8
2018-09-26T00:05:57.609Z,29.3
2018-09-26T00:06:59.163Z,29.8
2018-09-26T00:08:00.706Z,29.3
2018-09-26T00:09:02.250Z,29.8
2018-09-26T00:10:03.798Z,29.8
2018-09-26T00:11:05.346Z,29.3
2018-09-26T00:12:06.897Z,29.3
2018-09-26T00:13:08.453Z,29.3
2018-09-26T00:14:10.024Z,29.3
2018-09-26T00:15:11.585Z,28.8
2018-09-26T00:16:12.984Z,29.3
2018-09-26T00:17:14.548Z,28.8
2018-09-26T00:18:16.095Z,28.8
2018-09-26T00:19:17.664Z,28.8
2018-09-26T00:20:19.067Z,28.3
2018-09-26T00:21:20.628Z,28.3
2018-09-26T00:22:22.235Z,28.8
2018-09-26T00:23:23.784Z,28.8
2018-09-26T00:24:25.345Z,28.8
2018-09-26T00:25:26.913Z,28.8
2018-09-26T00:26:28.459Z,28.8
2018-09-26T00:27:30.015Z,28.8
2018-09-26T00:28:31.403Z,29.3
2018-09-26T00:29:32.981Z,29.3
2018-09-26T00:30:34.533Z,29.3
2018-09-26T00:31:36.085Z,28.8
2018-09-26T00:32:37.469Z,27.9
2018-09-26T00:33:39.040Z,28.8
2018-09-26T00:34:40.830Z,28.8
2018-09-26T00:35:42.604Z,28.8
2018-09-26T00:36:44.216Z,28.8
2018-09-26T00:37:45.808Z,28.8
2018-09-26T00:38:47.358Z,27.9
2018-09-26T00:39:48.937Z,28.3
2018-09-26T00:40:50.496Z,28.3
2018-09-26T00:41:52.106Z,28.3
2018-09-26T00:42:53.648Z,28.3
2018-09-26T00:43:55.068Z,28.3
2018-09-26T00:44:56.620Z,27.9
2018-09-26T00:45:58.188Z,28.3
2018-09-26T00:46:59.739Z,27.9
2018-09-26T00:48:01.121Z,28.3
2018-09-26T00:49:02.704Z,27.9
2018-09-26T00:50:04.282Z,28.3
2018-09-26T00:51:05.841Z,28.8
2018-09-26T00:52:07.398Z,28.3
2018-09-26T00:53:08.956Z,28.3
2018-09-26T00:54:10.525Z,28.3
2018-09-26T00:55:12.071Z,27.9
2018-09-26T04:21:09.820Z,48.9
2018-09-26T04:22:11.453Z,50.3
2018-09-26T04:23:12.864Z,49.9
2018-09-26T04:24:14.257Z,48.4
2018-09-26T04:25:15.822Z,45.9
2018-09-26T04:26:17.694Z,43.5
2018-09-26T04:27:19.993Z,42.5
2018-09-26T04:28:21.769Z,41.5
2018-09-26T04:29:23.471Z,43.5
2018-09-26T04:30:25.318Z,44
2018-09-26T04:31:27.028Z,45.9
2018-09-26T04:32:28.870Z,47.4
2018-09-26T04:33:31.421Z,47.4
2018-09-26T04:34:33.156Z,48.9
2018-09-26T04:35:34.721Z,48.9
2018-09-26T04:36:36.273Z,47.4
2018-09-26T04:37:37.839Z,46.4
2018-09-26T04:38:40.255Z,44.5
2018-09-26T04:39:42.085Z,43
2018-09-26T04:40:43.491Z,43
2018-09-26T04:41:45.036Z,44
2018-09-26T04:42:46.596Z,45.5
2018-09-26T04:43:48.149Z,46.9
2018-09-26T04:44:49.726Z,48.9
2018-09-26T04:45:51.121Z,49.9
2018-09-26T04:46:52.373Z,50.3
2018-09-26T04:47:53.769Z,50.8
2018-09-26T04:48:55.308Z,49.4
2018-09-26T04:49:56.690Z,48.9
2018-09-26T04:50:58.558Z,48.4
2018-09-26T04:52:29.718Z,47.9
2018-09-26T04:53:31.276Z,46.9
2018-09-26T04:54:32.663Z,45.9
2018-09-26T04:55:34.204Z,46.9
2018-09-26T04:56:35.782Z,45.9
2018-09-26T04:57:37.352Z,45.5
2018-09-26T04:58:38.919Z,46.4
2018-09-26T04:59:40.159Z,45.9
2018-09-26T05:00:41.734Z,46.9
2018-09-26T05:01:43.326Z,46.4
2018-09-26T05:02:44.977Z,46.4
2018-09-26T05:03:46.544Z,45.9
2018-09-26T05:04:48.106Z,45.9
2018-09-26T05:05:49.683Z,46.4
2018-09-26T05:06:51.236Z,45
2018-09-26T05:07:52.788Z,46.4
2018-09-26T05:08:54.711Z,45.5
2018-09-26T05:09:56.192Z,45.9
2018-09-26T05:10:57.765Z,46.4
2018-09-26T05:11:59.318Z,45.9
2018-09-26T05:13:00.881Z,45.9
2018-09-26T05:14:02.464Z,45.9
2018-09-26T05:15:03.861Z,46.4
2018-09-26T05:16:05.264Z,45.9
2018-09-26T05:17:06.501Z,45.5
2018-09-26T05:18:07.922Z,45
2018-09-26T05:19:09.334Z,45.5
2018-09-26T05:20:10.897Z,45
2018-09-26T05:21:12.277Z,44
2018-09-26T05:22:13.665Z,44.5
2018-09-26T05:23:15.845Z,44
2018-09-26T05:24:17.334Z,44
2018-09-26T05:25:18.890Z,44
2018-09-26T05:26:20.443Z,43
2018-09-26T05:27:21.991Z,44
2018-09-26T05:28:23.599Z,43.5
2018-09-26T05:29:24.996Z,44
2018-09-26T05:30:27.110Z,43
2018-09-26T05:31:28.883Z,42.5
2018-09-26T05:32:30.265Z,43
2018-09-26T05:33:31.830Z,42.5
2018-09-26T05:34:33.411Z,43
2018-09-26T05:35:34.969Z,43.5
2018-09-26T05:36:36.517Z,43
2018-09-26T05:37:38.225Z,45.9
2018-09-26T05:38:39.912Z,51.3
2018-09-26T05:39:41.607Z,55.7
2018-09-26T05:40:43.186Z,56.7
2018-09-26T05:41:44.835Z,57.2
2018-09-26T05:42:46.446Z,57.7
2018-09-26T05:43:48.012Z,56.7
2018-09-26T05:44:49.449Z,55.7
2018-09-26T05:45:50.859Z,55.7
2018-09-26T05:46:52.246Z,56.2
2018-09-26T05:47:53.829Z,55.7
2018-09-26T05:48:55.420Z,54.3
2018-09-26T05:49:56.802Z,54.3
2018-09-26T05:50:58.216Z,53.8
2018-09-26T05:51:59.843Z,53.3
2018-09-26T05:53:01.231Z,52.8
2018-09-26T05:54:02.513Z,52.8
2018-09-26T05:55:04.079Z,51.8
2018-09-26T05:56:05.467Z,51.8
2018-09-26T05:57:06.839Z,50.3
2018-09-26T05:58:08.235Z,49.4
2018-09-26T05:59:09.828Z,47.9
2018-09-26T06:00:11.229Z,45.5
2018-09-26T06:01:12.806Z,44
2018-09-26T06:02:14.211Z,44.5
2018-09-26T06:03:15.738Z,45.9
2018-09-26T06:04:17.233Z,47.4
2018-09-26T06:05:19.091Z,48.4
2018-09-26T06:06:20.549Z,50.3
2018-09-26T06:07:21.944Z,51.3
2018-09-26T06:08:23.499Z,50.8
2018-09-26T06:09:24.894Z,51.3
2018-09-26T06:10:26.291Z,51.3
2018-09-26T06:11:27.895Z,51.3
2018-09-26T06:12:29.497Z,50.8
2018-09-26T06:13:30.923Z,50.8
2018-09-26T06:14:32.340Z,49.9
2018-09-26T06:15:33.895Z,49.9
2018-09-26T06:16:35.308Z,50.8
2018-09-26T06:17:36.695Z,50.3
2018-09-26T06:18:38.268Z,49.4
2018-09-26T06:19:39.836Z,50.3
2018-09-26T06:20:41.237Z,49.9
2018-09-26T06:21:42.796Z,48.9
2018-09-26T06:22:44.361Z,49.4
2018-09-26T06:23:45.957Z,48.4
2018-09-26T06:24:48.143Z,47.9
2018-09-26T06:25:49.929Z,47.9
2018-09-26T06:26:51.516Z,49.4
2018-09-26T06:27:53.111Z,49.4
2018-09-26T06:28:54.677Z,47.4
2018-09-26T06:29:56.090Z,45.9
2018-09-26T06:30:57.643Z,43
2018-09-26T06:31:58.887Z,42.5
2018-09-26T06:33:00.456Z,42
2018-09-26T06:34:01.860Z,40.6
2018-09-26T06:35:03.741Z,41.1
2018-09-26T06:36:05.594Z,40.6
2018-09-26T06:37:07.187Z,40.1
2018-09-26T06:38:08.593Z,40.1
2018-09-26T06:39:09.987Z,40.1
2018-09-26T06:40:11.557Z,39.6
2018-09-26T06:41:12.777Z,39.6
2018-09-26T06:42:14.162Z,40.6
2018-09-26T06:43:15.725Z,40.1
2018-09-26T06:44:17.284Z,40.6
2018-09-26T06:45:18.838Z,39.6
2018-09-26T06:46:20.231Z,39.6
2018-09-26T06:47:21.641Z,39.1
2018-09-26T06:48:22.834Z,38.6
2018-09-26T06:49:24.381Z,39.6
2018-09-26T06:50:25.777Z,39.6
2018-09-26T06:51:27.349Z,39.6
2018-09-26T06:52:28.727Z,38.1
2018-09-26T06:53:30.279Z,38.6
2018-09-26T06:54:31.825Z,38.6
2018-09-26T06:55:34.895Z,37.6
2018-09-26T06:56:36.466Z,37.6
2018-09-26T06:57:38.026Z,37.6
2018-09-26T06:58:39.553Z,37.6
2018-09-26T06:59:40.953Z,37.1
2018-09-26T07:00:42.506Z,37.1
2018-09-26T07:01:44.089Z,37.6
2018-09-26T07:02:45.652Z,36.7
2018-09-26T07:03:47.211Z,37.1
2018-09-26T07:04:48.780Z,37.6
2018-09-26T07:05:50.340Z,37.1
2018-09-26T07:06:51.892Z,37.6
2018-09-26T07:07:53.133Z,36.7
2018-09-26T07:08:54.531Z,36.7
2018-09-26T07:09:55.917Z,36.2
2018-09-26T07:10:57.326Z,36.7
2018-09-26T07:11:58.939Z,36.2
2018-09-26T07:13:00.213Z,36.7
2018-09-26T07:14:01.791Z,37.1
2018-09-26T07:15:03.418Z,37.1
2018-09-26T07:16:04.975Z,36.7
2018-09-26T07:17:06.225Z,36.2
2018-09-26T07:18:07.791Z,37.1
2018-09-26T07:19:09.166Z,37.1
2018-09-26T07:20:10.739Z,37.1
2018-09-26T07:21:12.140Z,36.7
2018-09-26T07:22:13.704Z,37.6
2018-09-26T07:23:15.285Z,36.7
2018-09-26T07:24:16.676Z,37.1
2018-09-26T07:25:18.069Z,38.1
2018-09-26T07:26:19.622Z,36.7
2018-09-26T07:27:21.180Z,36.2
2018-09-26T07:28:22.591Z,37.6
2018-09-26T07:29:24.150Z,36.7
2018-09-26T07:30:25.733Z,37.6
2018-09-26T07:31:27.709Z,37.1
2018-09-26T07:32:29.451Z,36.7
2018-09-26T07:33:30.862Z,36.2
2018-09-26T07:34:32.429Z,37.1
2018-09-26T07:35:34.006Z,37.1
2018-09-26T07:36:35.723Z,37.1
2018-09-26T07:37:37.282Z,37.1
2018-09-26T07:38:39.229Z,36.2
2018-09-26T07:39:40.638Z,36.7
2018-09-26T07:40:42.214Z,36.7
2018-09-26T07:41:43.612Z,37.1
2018-09-26T07:42:44.843Z,37.1
2018-09-26T07:43:46.245Z,37.1
2018-09-26T07:44:48.438Z,36.7
2018-09-26T07:45:50.273Z,36.2
2018-09-26T07:46:51.512Z,36.2
2018-09-26T07:47:52.927Z,35.7
2018-09-26T07:48:54.160Z,36.7
2018-09-26T07:49:55.724Z,36.2
2018-09-26T07:50:57.123Z,36.2
2018-09-26T07:51:58.529Z,36.2
2018-09-26T07:53:00.309Z,35.7
2018-09-26T07:54:01.754Z,36.2
2018-09-26T07:55:03.149Z,36.2
2018-09-26T07:56:04.388Z,35.7
2018-09-26T07:57:05.968Z,35.2
2018-09-26T07:58:07.336Z,36.2
2018-09-26T07:59:09.133Z,35.2
2018-09-26T08:00:10.612Z,34.2
2018-09-26T08:01:12.182Z,35.2
2018-09-26T08:02:13.446Z,34.7
2018-09-26T08:03:15.043Z,35.7
2018-09-26T08:04:16.610Z,34.2
2018-09-26T08:05:18.181Z,34.7
2018-09-26T08:06:19.595Z,34.7
2018-09-26T08:07:21.176Z,34.7
2018-09-26T08:08:22.749Z,34.7
2018-09-26T08:09:24.170Z,34.2
2018-09-26T08:10:25.709Z,33.7
2018-09-26T08:11:27.919Z,34.2
2018-09-26T08:12:29.711Z,32.7
2018-09-26T08:13:31.117Z,33.7
2018-09-26T08:14:32.728Z,33.2
2018-09-26T08:15:34.307Z,33.7
2018-09-26T08:16:35.721Z,33.7
2018-09-26T08:17:38.481Z,33.7
2018-09-26T08:18:40.470Z,33.7
2018-09-26T08:19:42.249Z,33.2
2018-09-26T08:20:43.631Z,32.7
2018-09-26T08:21:45.210Z,33.2
2018-09-26T08:22:46.794Z,33.7
2018-09-26T08:23:48.720Z,33.2
2018-09-26T08:24:50.544Z,33.2
2018-09-26T08:25:52.109Z,33.2
2018-09-26T08:26:53.702Z,32.7
2018-09-26T08:27:55.109Z,32.7
2018-09-26T08:28:56.532Z,31.8
2018-09-26T08:29:58.457Z,32.3
2018-09-26T08:31:00.058Z,31.8
2018-09-26T08:32:01.629Z,32.7
2018-09-26T08:33:02.717Z,32.3
2018-09-26T08:34:04.278Z,31.8
2018-09-26T08:35:05.856Z,31.8
2018-09-26T08:36:07.421Z,31.8
2018-09-26T08:37:08.975Z,31.3
2018-09-26T08:38:10.570Z,31.3
2018-09-26T08:39:12.148Z,30.8
2018-09-26T08:40:13.715Z,31.8
2018-09-26T08:41:15.125Z,31.8
2018-09-26T08:42:16.331Z,31.3
2018-09-26T08:43:17.878Z,31.3
2018-09-26T08:44:19.114Z,30.8
2018-09-26T08:45:20.668Z,31.3
2018-09-26T08:46:22.243Z,31.3
2018-09-26T08:47:23.652Z,30.8
2018-09-26T08:48:25.237Z,31.3
2018-09-26T08:49:26.613Z,30.8
2018-09-26T08:50:28.182Z,31.3
2018-09-26T08:51:29.578Z,31.3
2018-09-26T08:52:30.988Z,30.8
2018-09-26T08:53:32.480Z,31.3
2018-09-26T08:54:33.897Z,32.3
2018-09-26T08:55:35.479Z,30.8
2018-09-26T08:56:37.037Z,31.3
2018-09-26T08:57:38.438Z,31.8
2018-09-26T08:58:40.028Z,32.3
2018-09-26T08:59:41.974Z,31.8
2018-09-26T09:00:43.708Z,32.3
2018-09-26T09:01:45.096Z,32.7
2018-09-26T09:02:46.512Z,31.8
2018-09-26T09:03:48.078Z,31.8
2018-09-26T09:04:49.624Z,32.3
2018-09-26T09:05:51.177Z,31.8
2018-09-26T09:06:52.755Z,31.3
2018-09-26T09:07:54.316Z,32.3
2018-09-26T09:08:55.874Z,32.3
2018-09-26T09:09:57.419Z,32.7
2018-09-26T09:10:59.048Z,32.3
2018-09-26T09:12:00.614Z,32.3
2018-09-26T09:13:02.182Z,31.8
2018-09-26T09:14:03.765Z,31.8
2018-09-26T09:15:05.187Z,32.3
2018-09-26T09:16:06.768Z,31.8
2018-09-26T09:17:08.208Z,31.8
2018-09-26T09:18:09.802Z,31.8
2018-09-26T09:19:11.367Z,32.3
2018-09-26T09:20:13.095Z,32.7
2018-09-26T09:21:14.568Z,32.3
2018-09-26T09:22:16.150Z,32.3
2018-09-26T09:23:17.701Z,32.3
2018-09-26T09:24:19.277Z,32.3
2018-09-26T09:25:20.717Z,32.3
2018-09-26T09:26:22.752Z,32.3
2018-09-26T09:27:24.425Z,31.8
2018-09-26T09:28:26.056Z,31.8
2018-09-26T09:29:27.451Z,32.3
2018-09-26T09:30:28.835Z,32.3
2018-09-26T09:31:30.397Z,32.7
2018-09-26T09:32:31.963Z,31.8
2018-09-26T09:33:33.525Z,32.3
2018-09-26T09:34:34.917Z,31.3
2018-09-26T09:35:36.479Z,31.8
2018-09-26T09:36:38.542Z,32.3
2018-09-26T09:37:40.064Z,32.3
2018-09-26T09:38:41.645Z,31.8
2018-09-26T09:39:43.190Z,32.3
2018-09-26T09:40:44.603Z,32.7
2018-09-26T09:41:46.151Z,32.3
2018-09-26T09:42:47.687Z,32.3
2018-09-26T09:43:49.394Z,32.3
2018-09-26T09:44:51.040Z,31.8
2018-09-26T09:45:52.608Z,31.8
2018-09-26T09:46:54.196Z,32.3
2018-09-26T09:47:55.749Z,31.8
2018-09-26T09:48:57.343Z,32.3
2018-09-26T09:49:58.574Z,31.3
2018-09-26T09:50:59.988Z,31.8
2018-09-26T09:52:01.396Z,31.8
2018-09-26T09:53:02.955Z,31.8
2018-09-26T09:54:04.204Z,31.3
2018-09-26T09:55:05.762Z,31.3
2018-09-26T09:56:07.527Z,31.8
2018-09-26T09:57:09.125Z,31.8
2018-09-26T09:58:10.724Z,32.3
2018-09-26T09:59:12.291Z,32.3
2018-09-26T10:00:13.544Z,31.8
2018-09-26T10:01:15.104Z,31.8
2018-09-26T10:02:17.180Z,30.8
2018-09-26T10:03:18.914Z,31.3
2018-09-26T10:04:20.483Z,30.8
2018-09-26T10:05:21.731Z,31.3
2018-09-26T10:06:23.321Z,31.8
2018-09-26T10:07:24.877Z,31.3
2018-09-26T10:08:26.687Z,30.8
2018-09-26T10:09:28.270Z,31.3
2018-09-26T10:10:29.839Z,30.8
2018-09-26T10:11:31.230Z,31.3
2018-09-26T10:12:32.800Z,31.3
2018-09-26T10:13:34.385Z,30.8
2018-09-26T10:14:35.810Z,29.8
2018-09-26T10:15:37.044Z,30.8
2018-09-26T10:16:38.340Z,30.8
2018-09-26T10:17:40.387Z,30.8
2018-09-26T10:18:42.133Z,30.8
2018-09-26T10:19:43.712Z,30.8
2018-09-26T10:20:45.115Z,31.3
2018-09-26T10:21:46.521Z,30.8
2018-09-26T10:22:48.070Z,30.3
2018-09-26T10:23:49.641Z,30.8
2018-09-26T10:24:51.215Z,30.3
2018-09-26T10:25:52.643Z,30.8
2018-09-26T10:26:54.206Z,30.3
2018-09-26T10:27:55.769Z,30.3
2018-09-26T10:28:57.339Z,29.8
2018-09-26T10:29:58.877Z,30.3
2018-09-26T10:31:00.278Z,29.8
2018-09-26T10:32:01.850Z,29.8
2018-09-26T10:33:03.418Z,30.8
2018-09-26T10:34:04.808Z,30.8
2018-09-26T10:35:07.014Z,29.8
2018-09-26T10:36:08.599Z,30.3
2018-09-26T10:37:10.157Z,30.3
2018-09-26T10:38:11.937Z,29.8
2018-09-26T10:39:13.347Z,29.8
2018-09-26T10:40:14.907Z,29.3
2018-09-26T10:41:16.483Z,30.3
2018-09-26T10:42:18.040Z,29.8
2018-09-26T10:43:19.615Z,30.3
2018-09-26T10:44:21.907Z,30.8
2018-09-26T10:45:23.663Z,29.8
2018-09-26T10:46:25.237Z,30.8
2018-09-26T10:47:26.809Z,30.3
2018-09-26T10:48:28.382Z,30.8
2018-09-26T10:49:29.948Z,31.3
2018-09-26T10:50:31.522Z,30.3
2018-09-26T10:51:33.094Z,30.3
2018-09-26T10:52:34.647Z,31.3
2018-09-26T10:53:36.207Z,30.8
2018-09-26T10:54:37.759Z,31.3
2018-09-26T10:55:39.328Z,31.8
2018-09-26T10:56:41.599Z,31.3
2018-09-26T10:57:43.377Z,31.8
2018-09-26T10:58:44.798Z,32.3
2018-09-26T10:59:46.221Z,31.3
2018-09-26T11:00:47.785Z,32.3
2018-09-26T11:01:49.340Z,32.7
2018-09-26T11:02:50.914Z,32.3
2018-09-26T11:03:52.504Z,32.3
2018-09-26T11:04:54.078Z,32.7
2018-09-26T11:05:55.650Z,31.8
2018-09-26T11:06:57.077Z,32.3
2018-09-26T11:07:58.461Z,32.7
2018-09-26T11:09:00.042Z,32.3
2018-09-26T11:10:01.436Z,32.7
2018-09-26T11:11:03.024Z,32.3
2018-09-26T11:12:04.582Z,32.7
2018-09-26T11:13:06.147Z,32.3
2018-09-26T11:14:07.710Z,32.7
2018-09-26T11:15:09.378Z,31.8
2018-09-26T11:16:11.290Z,32.7
2018-09-26T11:17:12.739Z,32.7
2018-09-26T11:18:13.795Z,31.8
2018-09-26T11:19:15.201Z,32.3
2018-09-26T11:20:17.172Z,32.7
2018-09-26T11:21:19.278Z,32.3
2018-09-26T11:22:21.672Z,32.7
2018-09-26T11:23:23.527Z,32.3
2018-09-26T11:24:25.083Z,31.8
2018-09-26T11:25:26.472Z,31.8
2018-09-26T11:26:28.359Z,32.3
2018-09-26T11:27:29.973Z,33.2
2018-09-26T11:28:31.535Z,33.2
2018-09-26T11:29:32.793Z,32.3
2018-09-26T11:30:34.365Z,32.3
2018-09-26T11:31:35.762Z,32.7
2018-09-26T11:32:37.189Z,32.3
2018-09-26T11:33:39.065Z,32.3
2018-09-26T11:34:40.627Z,32.7
2018-09-26T11:35:42.064Z,32.7
2018-09-26T11:36:43.313Z,32.7
2018-09-26T11:37:44.707Z,32.7
2018-09-26T11:38:46.340Z,32.7
2018-09-26T11:39:47.924Z,32.7
2018-09-26T11:40:49.506Z,32.3
2018-09-26T11:41:51.074Z,32.3
2018-09-26T11:42:52.680Z,32.7
2018-09-26T11:43:54.245Z,32.7
2018-09-26T11:44:55.831Z,32.3
2018-09-26T11:45:57.458Z,31.8
2018-09-26T11:46:59.044Z,33.2
2018-09-26T11:48:00.613Z,32.7
2018-09-26T11:49:02.010Z,31.8
2018-09-26T11:50:03.616Z,31.8
2018-09-26T11:51:05.209Z,31.8
2018-09-26T11:52:07.031Z,32.3
2018-09-26T11:53:08.638Z,32.3
2018-09-26T11:54:10.199Z,32.3
2018-09-26T11:55:11.767Z,32.3
2018-09-26T11:56:13.511Z,32.3
2018-09-26T11:57:15.159Z,31.8
2018-09-26T11:58:16.777Z,32.3
2018-09-26T11:59:18.456Z,31.8
2018-09-26T12:00:19.506Z,32.3
2018-09-26T12:01:21.069Z,32.3
2018-09-26T12:02:23.073Z,31.3
2018-09-26T12:03:24.909Z,31.8
2018-09-26T12:04:27.206Z,31.8
2018-09-26T12:05:28.336Z,32.3
2018-09-26T12:06:29.736Z,32.3
2018-09-26T12:07:31.474Z,32.7
2018-09-26T12:08:33.257Z,31.8
2018-09-26T12:09:34.653Z,32.3
2018-09-26T12:10:36.052Z,32.3
2018-09-26T12:11:37.670Z,32.3
2018-09-26T12:12:39.249Z,31.3
2018-09-26T12:13:41.109Z,31.8
2018-09-26T12:14:42.760Z,31.8
2018-09-26T12:15:44.169Z,31.8
2018-09-26T12:16:45.563Z,31.3
2018-09-26T12:17:47.120Z,32.3
2018-09-26T12:18:48.703Z,32.3
2018-09-26T12:19:50.272Z,31.8
2018-09-26T12:20:51.491Z,31.3
2018-09-26T12:21:53.660Z,31.3
2018-09-26T12:22:55.267Z,31.3
2018-09-26T12:23:56.836Z,30.3
2018-09-26T12:24:58.242Z,31.3
2018-09-26T12:25:59.815Z,30.3
2018-09-26T12:27:01.206Z,30.3
2018-09-26T12:28:02.783Z,30.8
2018-09-26T12:29:04.360Z,30.3
2018-09-26T12:30:06.126Z,30.3
2018-09-26T12:31:07.636Z,30.3
2018-09-26T12:32:09.268Z,30.3
2018-09-26T12:33:10.694Z,30.8
2018-09-26T12:34:12.462Z,30.3
2018-09-26T12:35:13.898Z,30.3
2018-09-26T12:36:15.751Z,30.8
2018-09-26T12:37:17.170Z,30.8
2018-09-26T12:38:18.735Z,30.8
2018-09-26T12:39:20.310Z,30.8
2018-09-26T12:40:22.485Z,31.3
2018-09-26T12:41:24.000Z,31.3
2018-09-26T12:42:26.399Z,31.3
2018-09-26T12:43:28.058Z,31.8
2018-09-26T12:44:29.646Z,30.8
2018-09-26T12:45:31.243Z,31.8
2018-09-26T12:46:32.637Z,31.3
2018-09-26T12:47:34.235Z,31.8
2018-09-26T12:48:36.432Z,31.8
2018-09-26T12:49:38.012Z,31.8
2018-09-26T12:50:39.595Z,31.8
2018-09-26T12:51:41.176Z,32.3
2018-09-26T12:52:42.554Z,32.3
2018-09-26T12:53:45.151Z,32.3
2018-09-26T12:54:46.729Z,32.7
2018-09-26T12:55:48.133Z,32.7
2018-09-26T12:56:49.543Z,32.7
2018-09-26T12:57:51.186Z,32.3
2018-09-26T12:58:52.772Z,32.3
2018-09-26T12:59:54.361Z,31.8
2018-09-26T13:00:55.925Z,32.7
2018-09-26T13:01:57.505Z,32.3
2018-09-26T13:02:58.931Z,32.7
2018-09-26T13:04:00.481Z,33.2
2018-09-26T13:05:02.069Z,33.2
2018-09-26T13:06:03.327Z,32.3
2018-09-26T13:07:04.925Z,32.7
2018-09-26T13:08:06.687Z,32.7
2018-09-26T13:09:08.499Z,32.7
2018-09-26T13:10:10.160Z,32.7
2018-09-26T13:11:11.605Z,32.7
2018-09-26T13:12:13.252Z,32.3
2018-09-26T13:13:14.740Z,33.2
2018-09-26T13:14:16.794Z,32.7
2018-09-26T13:15:18.485Z,33.2
2018-09-26T13:16:20.347Z,33.2
2018-09-26T13:17:21.990Z,32.7
2018-09-26T13:18:23.933Z,32.3
2018-09-26T13:19:25.971Z,32.7
2018-09-26T13:20:27.989Z,32.3
2018-09-26T13:21:29.621Z,32.7
2018-09-26T13:22:31.018Z,32.7
2018-09-26T13:23:32.589Z,32.7
2018-09-26T13:24:34.161Z,31.8
2018-09-26T13:25:36.364Z,32.7
2018-09-26T13:26:37.816Z,32.7
2018-09-26T13:27:39.205Z,32.7
2018-09-26T13:28:40.766Z,32.7
2018-09-26T13:29:42.332Z,32.3
2018-09-26T13:30:43.887Z,32.3
2018-09-26T13:31:45.334Z,32.7
2018-09-26T13:32:46.601Z,32.7
2018-09-26T13:33:48.157Z,32.7
2018-09-26T13:34:49.734Z,32.7
2018-09-26T13:35:51.353Z,32.3
2018-09-26T13:36:52.960Z,32.7
2018-09-26T13:37:54.669Z,32.3
2018-09-26T13:38:56.688Z,32.3
2018-09-26T13:39:58.335Z,32.7
2018-09-26T13:40:59.730Z,32.7
2018-09-26T13:42:00.950Z,32.7
2018-09-26T13:43:02.526Z,32.7
2018-09-26T13:44:03.852Z,31.8
2018-09-26T13:45:05.444Z,32.7
2018-09-26T13:46:07.351Z,31.8
2018-09-26T13:47:09.080Z,32.7
2018-09-26T13:48:10.701Z,32.3
2018-09-26T13:49:12.146Z,32.3
2018-09-26T13:50:13.835Z,33.2
2018-09-26T13:51:15.547Z,31.8
2018-09-26T13:52:17.518Z,32.7
2018-09-26T13:53:19.277Z,31.8
2018-09-26T13:54:21.132Z,32.3
2018-09-26T13:55:22.748Z,32.7
2018-09-26T13:56:25.016Z,31.8
2018-09-26T13:57:26.766Z,32.7
2018-09-26T13:58:28.346Z,32.3
2018-09-26T13:59:29.925Z,32.7
2018-09-26T14:00:31.489Z,31.8
2018-09-26T14:01:33.359Z,32.3
2018-09-26T14:02:34.972Z,31.8
2018-09-26T14:03:36.542Z,31.8
2018-09-26T14:04:37.976Z,31.3
2018-09-26T14:05:39.378Z,31.8
2018-09-26T14:06:40.778Z,32.3
2018-09-26T14:07:42.183Z,31.8
2018-09-26T14:08:44.008Z,31.8
2018-09-26T14:09:45.415Z,31.8
2018-09-26T14:10:47.696Z,32.3
2018-09-26T14:12:03.888Z,31.8
2018-09-26T14:13:05.304Z,31.8
2018-09-26T14:14:06.963Z,32.3
2018-09-26T14:15:08.571Z,31.3
2018-09-26T14:16:09.995Z,31.8
2018-09-26T14:17:11.414Z,31.3
2018-09-26T14:18:13.243Z,32.3
2018-09-26T14:19:14.718Z,30.8
2018-09-26T14:20:16.713Z,31.3
2018-09-26T14:21:18.408Z,30.3
2018-09-26T14:22:20.471Z,30.8
2018-09-26T14:23:22.378Z,31.3
2018-09-26T14:24:24.059Z,31.8
2018-09-26T14:25:25.618Z,30.8
2018-09-26T14:26:27.701Z,30.8
2018-09-26T14:27:29.272Z,30.3
2018-09-26T14:28:30.851Z,30.3
2018-09-26T14:29:32.298Z,30.8
2018-09-26T14:30:35.391Z,30.3
2018-09-26T14:31:37.478Z,30.3
2018-09-26T14:32:39.086Z,30.8
2018-09-26T14:33:40.946Z,29.8
2018-09-26T14:34:42.403Z,30.8
2018-09-26T14:35:43.977Z,31.3
2018-09-26T14:36:45.820Z,31.8
2018-09-26T14:37:47.424Z,31.8
2018-09-26T14:38:49.104Z,30.8
2018-09-26T14:39:51.074Z,30.8
2018-09-26T14:40:52.642Z,31.3
2018-09-26T14:41:54.052Z,31.8
2018-09-26T14:42:55.462Z,31.3
2018-09-26T14:43:57.030Z,31.8
2018-09-26T14:44:58.623Z,32.3
2018-09-26T14:46:00.836Z,32.7
2018-09-26T14:47:02.460Z,32.3
2018-09-26T14:48:03.850Z,31.8
2018-09-26T14:49:05.525Z,32.7
2018-09-26T14:50:07.325Z,32.3
2018-09-26T14:51:08.584Z,32.3
2018-09-26T14:52:10.148Z,32.7
2018-09-26T14:53:11.897Z,32.3
2018-09-26T14:54:13.627Z,33.2
2018-09-26T14:55:15.594Z,32.7
2018-09-26T14:56:17.588Z,32.7
2018-09-26T14:57:19.799Z,32.7
2018-09-26T14:58:21.779Z,32.7
2018-09-26T14:59:23.257Z,33.2
2018-09-26T15:00:25.037Z,32.7
2018-09-26T15:01:26.857Z,32.7
2018-09-26T15:02:28.454Z,33.2
2018-09-26T15:03:30.029Z,33.2
2018-09-26T15:04:31.925Z,32.7
2018-09-26T15:05:33.283Z,32.7
2018-09-26T15:06:34.866Z,32.7
2018-09-26T15:07:36.348Z,33.2
2018-09-26T15:08:38.082Z,33.7
2018-09-26T15:09:39.584Z,33.7
2018-09-26T15:10:41.025Z,32.7
2018-09-26T15:11:42.429Z,33.7
2018-09-26T15:12:44.001Z,33.2
2018-09-26T15:13:45.459Z,33.2
2018-09-26T15:14:46.859Z,32.7
2018-09-26T15:15:48.287Z,32.7
2018-09-26T15:16:49.678Z,32.7
2018-09-26T15:17:51.082Z,32.7
2018-09-26T15:18:52.658Z,33.7
2018-09-26T15:19:54.093Z,33.2
2018-09-26T15:20:55.878Z,32.7
2018-09-26T15:21:57.112Z,33.7
2018-09-26T15:22:58.523Z,33.2
2018-09-26T15:24:00.088Z,33.2
2018-09-26T15:25:01.659Z,33.2
2018-09-26T15:26:03.229Z,32.7
2018-09-26T15:27:04.810Z,33.2
2018-09-26T15:28:06.923Z,33.7
2018-09-26T15:29:08.656Z,32.7
2018-09-26T15:30:10.508Z,33.2
2018-09-26T15:31:12.026Z,32.7
2018-09-26T15:32:13.651Z,32.7
2018-09-26T15:33:15.365Z,32.7
2018-09-26T15:34:17.471Z,33.2
2018-09-26T15:35:19.334Z,33.2
2018-09-26T15:36:21.376Z,33.2
2018-09-26T15:37:23.159Z,32.7
2018-09-26T15:38:25.568Z,32.7
2018-09-26T15:39:27.272Z,33.2
2018-09-26T15:40:28.948Z,33.2
2018-09-26T15:41:31.020Z,31.8
2018-09-26T15:42:32.824Z,33.7
2018-09-26T15:43:34.436Z,32.7
2018-09-26T15:44:36.030Z,32.7
2018-09-26T15:45:37.572Z,32.7
2018-09-26T15:46:38.983Z,33.2
2018-09-26T15:47:40.562Z,32.3
2018-09-26T15:48:42.110Z,33.2
2018-09-26T15:49:43.923Z,33.7
2018-09-26T15:50:45.518Z,32.7
2018-09-26T15:51:46.938Z,32.7
2018-09-26T15:52:48.510Z,32.7
2018-09-26T15:53:49.925Z,32.3
2018-09-26T15:54:51.500Z,32.7
2018-09-26T15:55:53.169Z,33.2
2018-09-26T15:56:54.462Z,32.3
2018-09-26T15:57:55.885Z,32.3
2018-09-26T15:58:57.517Z,32.7
2018-09-26T15:59:59.175Z,33.2
2018-09-26T16:01:00.789Z,32.3
2018-09-26T16:02:02.057Z,32.3
2018-09-26T16:03:04.455Z,32.3
2018-09-26T16:04:06.412Z,32.7
2018-09-26T16:05:07.931Z,32.3
2018-09-26T16:06:09.862Z,31.8
2018-09-26T16:07:11.526Z,32.3
2018-09-26T16:08:13.228Z,31.8
2018-09-26T16:09:14.742Z,31.8
2018-09-26T16:10:16.531Z,31.8
2018-09-26T16:11:18.070Z,31.8
2018-09-26T16:12:20.131Z,31.3
2018-09-26T16:13:21.806Z,30.8
2018-09-26T16:14:23.734Z,31.3
2018-09-26T16:15:25.549Z,31.3
2018-09-26T16:16:26.797Z,31.3
2018-09-26T16:17:28.229Z,30.8
2018-09-26T16:18:29.827Z,30.8
2018-09-26T16:19:31.466Z,30.8
2018-09-26T16:20:33.069Z,30.8
2018-09-26T16:21:34.648Z,30.8
2018-09-26T16:22:36.246Z,31.3
2018-09-26T16:23:37.705Z,31.8
2018-09-26T16:24:39.110Z,30.8
2018-09-26T16:25:40.605Z,31.3
2018-09-26T16:26:42.255Z,31.8
2018-09-26T16:27:43.910Z,31.3
2018-09-26T16:28:45.145Z,31.3
2018-09-26T16:29:46.736Z,31.8
2018-09-26T16:30:48.170Z,32.3
2018-09-26T16:31:50.058Z,31.3
2018-09-26T16:32:51.885Z,31.8
2018-09-26T16:33:53.480Z,32.3
2018-09-26T16:34:55.106Z,32.7
2018-09-26T16:35:56.713Z,31.8
2018-09-26T16:36:58.318Z,32.7
2018-09-26T16:37:59.584Z,33.2
2018-09-26T16:39:01.348Z,32.7
2018-09-26T16:40:03.033Z,32.3
2018-09-26T16:41:04.647Z,32.7
2018-09-26T16:42:06.388Z,32.3
2018-09-26T16:43:08.068Z,32.7
2018-09-26T16:44:09.697Z,32.7
2018-09-26T16:45:11.805Z,32.3
2018-09-26T16:46:13.899Z,32.7
2018-09-26T16:47:15.536Z,32.7
2018-09-26T16:48:17.588Z,33.2
2018-09-26T16:49:19.405Z,33.2
2018-09-26T16:50:21.434Z,32.7
2018-09-26T16:51:23.317Z,32.7
2018-09-26T16:52:25.443Z,32.7
2018-09-26T16:53:27.579Z,33.2
2018-09-26T16:54:29.075Z,32.3
2018-09-26T16:55:30.724Z,33.7
2018-09-26T16:56:32.317Z,32.3
2018-09-26T16:57:33.566Z,32.7
2018-09-26T16:58:34.954Z,32.7
2018-09-26T16:59:36.648Z,32.7
2018-09-26T17:00:37.926Z,32.7
2018-09-26T17:01:39.561Z,33.7
2018-09-26T17:02:40.982Z,32.7
2018-09-26T17:03:42.236Z,33.2
2018-09-26T17:04:43.851Z,33.2
2018-09-26T17:05:45.271Z,33.2
2018-09-26T17:06:46.883Z,33.2